createdAt,value
2018-05-08T00:04:39.018Z,13.2
2018-05-08T00:09:39.031Z,13.5
2018-05-08T00:14:39.072Z,13.7
2018-05-08T00:19:38.917Z,13.8
2018-05-08T00:24:39.416Z,13.9
2018-05-08T00:29:39.270Z,13.9
2018-05-08T00:34:52.518Z,13.8
2018-05-08T00:39:52.455Z,13
2018-05-08T00:44:52.378Z,12.7
2018-05-08T00:49:52.255Z,12.6
2018-05-08T00:54:52.454Z,12.7
2018-05-08T00:59:52.256Z,12.6
2018-05-08T01:04:52.453Z,12.3
2018-05-08T01:09:52.453Z,12.3
2018-05-08T01:14:52.266Z,12.1
2018-05-08T01:19:52.406Z,11.9
2018-05-08T01:24:52.448Z,11.8
2018-05-08T01:29:52.494Z,11.8
2018-05-08T01:34:53.065Z,11.6
2018-05-08T01:39:52.849Z,11.4
2018-05-08T01:45:05.571Z,11.1
2018-05-08T01:50:05.527Z,11.3
2018-05-08T01:55:05.457Z,11.1
2018-05-08T02:00:05.299Z,11
2018-05-08T02:05:05.418Z,10.9
2018-05-08T02:10:06.157Z,10.9
2018-05-08T02:15:05.996Z,10.7
2018-05-08T02:20:05.941Z,10.6
2018-05-08T02:25:06.064Z,10.5
2018-05-08T02:30:06.108Z,10.5
2018-05-08T02:35:06.024Z,10.3
2018-05-08T02:40:06.073Z,10.5
2018-05-08T02:45:07.044Z,10.3
2018-05-08T02:50:06.971Z,10.2
2018-05-08T02:55:20.563Z,10.3
2018-05-08T03:00:20.319Z,10
2018-05-08T03:05:20.480Z,10
2018-05-08T03:10:20.482Z,9.9
2018-05-08T03:15:20.437Z,9.8
2018-05-08T03:20:20.305Z,9.7
2018-05-08T03:25:20.503Z,9.7
2018-05-08T03:30:23.227Z,9.8
2018-05-08T03:35:23.244Z,9.8
2018-05-08T03:40:37.207Z,9.6
2018-05-08T03:45:37.048Z,9.6
2018-05-08T03:50:37.157Z,9.4
2018-05-08T03:55:37.090Z,9.4
2018-05-08T04:00:36.907Z,9.4
2018-05-08T04:05:36.945Z,9.3
2018-05-08T04:10:36.964Z,9.1
2018-05-08T04:15:36.955Z,9.3
2018-05-08T04:20:37.182Z,9.4
2018-05-08T04:25:37.102Z,9.4
2018-05-08T04:30:37.132Z,9.8
2018-05-08T04:35:37.078Z,9.8
2018-05-08T04:40:37.329Z,9.8
2018-05-08T04:45:36.998Z,10.1
2018-05-08T04:50:49.181Z,10.5
2018-05-08T04:55:49.082Z,10.8
2018-05-08T05:00:49.112Z,11.1
2018-05-08T05:05:49.001Z,11.4
2018-05-08T05:10:48.924Z,11.4
2018-05-08T05:15:48.938Z,12.1
2018-05-08T05:20:49.027Z,12.4
2018-05-08T05:25:52.060Z,12.7
2018-05-08T05:30:51.813Z,13
2018-05-08T05:36:03.558Z,13.3
2018-05-08T05:41:03.288Z,13.7
2018-05-08T05:46:03.296Z,14.1
2018-05-08T05:51:03.486Z,14.5
2018-05-08T05:56:03.296Z,14.7
2018-05-08T06:01:03.433Z,15.3
2018-05-08T06:06:03.328Z,15.5
2018-05-08T06:11:04.331Z,16
2018-05-08T06:16:04.273Z,16.3
2018-05-08T06:21:16.345Z,16.3
2018-05-08T06:26:16.370Z,16.5
2018-05-08T06:31:16.241Z,16.6
2018-05-08T06:36:16.048Z,16.6
2018-05-08T06:41:16.099Z,17.2
2018-05-08T06:46:16.076Z,17.2
2018-05-08T06:51:16.269Z,17
2018-05-08T06:56:16.200Z,17.4
2018-05-08T07:01:16.232Z,17.5
2018-05-08T07:06:16.291Z,17.8
2018-05-08T07:11:16.105Z,17.7
2018-05-08T07:16:16.414Z,18
2018-05-08T07:21:20.619Z,17.8
2018-05-08T07:26:20.340Z,18
2018-05-08T07:31:31.119Z,18.3
2018-05-08T07:36:31.020Z,18.7
2018-05-08T07:41:31.059Z,18.4
2018-05-08T07:46:30.851Z,18.5
2018-05-08T07:51:31.012Z,18.9
2018-05-08T07:56:30.856Z,18.8
2018-05-08T08:01:31.033Z,19.2
2018-05-08T08:06:31.420Z,19.4
2018-05-08T08:11:31.178Z,19.5
2018-05-08T08:16:43.860Z,19.4
2018-05-08T08:21:43.608Z,19.5
2018-05-08T08:26:43.722Z,19.8
2018-05-08T08:31:43.756Z,19.9
2018-05-08T08:36:43.826Z,20.3
2018-05-08T08:41:43.604Z,20.3
2018-05-08T08:46:43.799Z,20.2
2018-05-08T08:51:46.694Z,20.2
2018-05-08T08:56:46.492Z,20.4
2018-05-08T09:01:57.177Z,20.7
2018-05-08T09:06:57.146Z,20.6
2018-05-08T09:11:56.923Z,20.8
2018-05-08T09:16:57.095Z,20.9
2018-05-08T09:21:56.928Z,21
2018-05-08T09:26:57.048Z,21
2018-05-08T09:31:57.107Z,21.5
2018-05-08T09:37:00.344Z,21.7
2018-05-08T09:42:00.441Z,21.7
2018-05-08T09:47:10.605Z,21.9
2018-05-08T09:52:10.560Z,22.1
2018-05-08T09:57:10.465Z,22.2
2018-05-08T10:02:10.336Z,22.3
2018-05-08T10:07:10.541Z,22.4
2018-05-08T10:12:10.312Z,22.1
2018-05-08T10:17:10.506Z,22.6
2018-05-08T10:22:11.536Z,22.4
2018-05-08T10:27:11.366Z,22.4
2018-05-08T10:32:24.239Z,22.7
2018-05-08T10:37:23.944Z,22.6
2018-05-08T10:42:23.997Z,22.7
2018-05-08T10:47:23.916Z,23.1
2018-05-08T10:52:23.765Z,23.3
2018-05-08T10:57:23.767Z,22.9
2018-05-08T11:02:23.752Z,23.1
2018-05-08T11:07:23.961Z,23.1
2018-05-08T11:12:23.872Z,22.9
2018-05-08T11:17:24.022Z,23.4
2018-05-08T11:22:23.956Z,23.3
2018-05-08T11:27:23.790Z,23.7
2018-05-08T11:32:24.353Z,23.4
2018-05-08T11:37:24.265Z,23.4
2018-05-08T11:42:37.141Z,23.7
2018-05-08T11:47:37.001Z,23.8
2018-05-08T11:52:37.065Z,23.7
2018-05-08T11:57:36.986Z,24.1
2018-05-08T12:02:36.806Z,23.8
2018-05-08T12:07:37.048Z,23.9
2018-05-08T12:12:36.850Z,23.9
2018-05-08T12:17:37.713Z,23.8
2018-05-08T12:22:37.546Z,24.1
2018-05-08T12:27:50.043Z,24.5
2018-05-08T12:32:49.926Z,24.4
2018-05-08T12:37:49.983Z,24.5
2018-05-08T12:42:49.881Z,24.1
2018-05-08T12:47:49.915Z,23.4
2018-05-08T12:52:49.762Z,24.2
2018-05-08T12:57:49.883Z,23.2
2018-05-08T13:02:49.779Z,22.7
2018-05-08T13:07:49.946Z,22.8
2018-05-08T13:12:49.952Z,23.2
2018-05-08T13:17:49.917Z,23.1
2018-05-08T13:22:49.995Z,22.9
2018-05-08T13:27:50.535Z,23.5
2018-05-08T13:32:50.451Z,23
2018-05-08T13:38:02.973Z,23.2
2018-05-08T13:43:02.861Z,23.3
2018-05-08T13:48:03.956Z,22.7
2018-05-08T13:53:02.867Z,22.8
2018-05-08T13:58:02.909Z,22.5
2018-05-08T14:03:02.944Z,22.6
2018-05-08T14:08:02.839Z,22.9
2018-05-08T14:13:04.370Z,23
2018-05-08T14:18:04.008Z,22.8
2018-05-08T14:23:04.111Z,22.8
2018-05-08T14:28:04.116Z,22.5
2018-05-08T14:33:04.150Z,21.9
2018-05-08T14:38:06.072Z,21.8
2018-05-08T14:43:05.809Z,21.8
2018-05-08T14:48:18.830Z,21.5
2018-05-08T14:53:18.626Z,21.5
2018-05-08T14:58:18.687Z,21.5
2018-05-08T15:03:18.508Z,21.6
2018-05-08T15:08:18.471Z,21.6
2018-05-08T15:13:18.675Z,21.5
2018-05-08T15:18:18.729Z,21.8
2018-05-08T15:23:19.062Z,22.1
2018-05-08T15:28:18.989Z,22.3
2018-05-08T15:33:31.066Z,22.2
2018-05-08T15:38:30.812Z,22.4
2018-05-08T15:43:30.946Z,22.1
2018-05-08T15:48:30.982Z,22.1
2018-05-08T15:53:31.030Z,22
2018-05-08T15:58:30.810Z,22.1
2018-05-08T16:03:30.820Z,22
2018-05-08T16:08:32.931Z,21.9
2018-05-08T16:13:32.733Z,21.7
2018-05-08T16:18:43.441Z,21.5
2018-05-08T16:23:42.586Z,21.4
2018-05-08T16:28:43.495Z,21.5
2018-05-08T16:33:42.657Z,21.5
2018-05-08T16:38:42.684Z,21.6
2018-05-08T16:43:44.408Z,21.5
2018-05-08T16:48:44.134Z,21.5
2018-05-08T16:53:44.177Z,21.3
2018-05-08T16:58:44.303Z,21.3
2018-05-08T17:03:44.083Z,21.2
2018-05-08T17:08:44.144Z,21.1
2018-05-08T17:13:44.387Z,20.9
2018-05-08T17:18:45.881Z,20.9
2018-05-08T17:23:45.647Z,20.8
2018-05-08T17:28:57.680Z,20.7
2018-05-08T17:33:57.405Z,20.6
2018-05-08T17:38:57.392Z,20.4
2018-05-08T17:43:57.429Z,20.1
2018-05-08T17:48:57.415Z,20
2018-05-08T17:53:57.437Z,19.7
2018-05-08T17:58:57.432Z,19.5
2018-05-08T18:03:57.432Z,19.3
2018-05-08T18:08:57.397Z,19.1
2018-05-08T18:14:10.123Z,19
2018-05-08T18:19:09.792Z,18.9
2018-05-08T18:24:09.965Z,18.8
2018-05-08T18:29:09.787Z,18.7
2018-05-08T18:34:09.757Z,18.6
2018-05-08T18:39:09.734Z,18.5
2018-05-08T18:44:09.756Z,18.4
2018-05-08T18:49:09.771Z,18.3
2018-05-08T18:54:09.797Z,18.2
2018-05-08T18:59:23.259Z,18.1
2018-05-08T19:04:22.953Z,18
2018-05-08T19:09:22.983Z,17.9
2018-05-08T19:14:23.013Z,17.8
2018-05-08T19:19:22.962Z,17.8
2018-05-08T19:24:22.998Z,17.6
2018-05-08T19:29:23.189Z,17.5
2018-05-08T19:34:26.320Z,17.4
2018-05-08T19:39:23.065Z,17.2
2018-05-08T19:44:35.272Z,17.2
2018-05-08T19:49:35.018Z,17.1
2018-05-08T19:54:35.241Z,17
2018-05-08T19:59:35.020Z,16.9
2018-05-08T20:04:35.210Z,16.7
2018-05-08T20:09:35.142Z,16.4
2018-05-08T20:14:35.170Z,16.4
2018-05-08T20:19:35.002Z,16.4
2018-05-08T20:24:35.020Z,16.2
2018-05-08T20:29:46.824Z,16.1
2018-05-08T20:34:46.837Z,15.9
2018-05-08T20:39:46.572Z,15.9
2018-05-08T20:44:46.539Z,15.8
2018-05-08T20:49:46.805Z,15.7
2018-05-08T20:54:46.696Z,15.6
2018-05-08T20:59:46.579Z,15.6
2018-05-08T21:04:47.090Z,15.6
2018-05-08T21:09:47.011Z,15.5
2018-05-08T21:14:59.123Z,15.5
2018-05-08T21:19:58.803Z,15.4
2018-05-08T21:24:58.822Z,15.3
2018-05-08T21:29:58.857Z,15.1
2018-05-08T21:34:58.871Z,15
2018-05-08T21:40:00.033Z,15
2018-05-08T21:44:58.862Z,14.8
2018-05-08T21:49:58.886Z,14.9
2018-05-08T21:54:59.093Z,14.8
2018-05-08T22:00:11.113Z,14.8
2018-05-08T22:05:10.693Z,14.8
2018-05-08T22:10:10.741Z,14.8
2018-05-08T22:15:10.750Z,14.6
2018-05-08T22:20:10.937Z,14.6
2018-05-08T22:25:10.751Z,14.6
2018-05-08T22:30:10.893Z,14.5
2018-05-08T22:35:10.985Z,14.5
2018-05-08T22:40:11.172Z,14.5
2018-05-08T22:45:23.142Z,14.4
2018-05-08T22:50:23.025Z,14.2
2018-05-08T22:55:23.052Z,13.9
2018-05-08T23:00:22.876Z,14
2018-05-08T23:05:23.344Z,14
2018-05-08T23:10:23.137Z,13.9
2018-05-08T23:15:23.279Z,13.8
2018-05-08T23:20:23.144Z,13.8
2018-05-08T23:25:23.348Z,13.7
2018-05-08T23:30:35.170Z,13.6
2018-05-08T23:35:35.016Z,13.6
2018-05-08T23:40:34.892Z,13.3
2018-05-08T23:45:34.910Z,13.3
2018-05-08T23:50:34.910Z,13.3
2018-05-08T23:55:35.143Z,13.1
